createdAt,value
2018-03-11T01:02:23.954Z,28.23
2018-03-11T01:12:38.473Z,22.60
2018-03-11T02:05:49.049Z,22.47
2018-03-11T02:16:00.947Z,19.77
2018-03-11T02:26:09.362Z,19.87
2018-03-11T02:36:17.633Z,19.07
2018-03-11T02:46:27.687Z,19.10
2018-03-11T02:56:37.992Z,21.63
2018-03-11T03:06:50.126Z,19.73
2018-03-11T03:17:00.837Z,18.70
2018-03-11T03:27:11.199Z,17.50
2018-03-11T03:37:21.441Z,17.80
2018-03-11T03:47:31.081Z,16.97
2018-03-11T03:57:42.628Z,17.20
2018-03-11T04:07:50.611Z,14.93
2018-03-11T04:18:00.502Z,14.63
2018-03-11T04:28:10.561Z,15.20
2018-03-11T04:38:20.664Z,13.97
2018-03-11T04:48:31.607Z,13.73
2018-03-11T04:59:00.493Z,13.17
2018-03-11T05:09:18.247Z,13.33
2018-03-11T05:19:27.602Z,12.00
2018-03-11T05:29:38.442Z,11.80
2018-03-11T05:39:48.967Z,12.07
2018-03-11T05:49:59.735Z,13.07
2018-03-11T06:00:11.339Z,14.23
2018-03-11T06:10:21.180Z,12.60
2018-03-11T06:20:31.784Z,11.43
2018-03-11T06:30:43.753Z,11.93
2018-03-11T06:40:52.266Z,11.67
2018-03-11T06:51:04.148Z,17.20
2018-03-11T07:22:11.567Z,12.53
2018-03-11T07:32:20.351Z,12.13
2018-03-11T07:42:30.797Z,11.63
2018-03-11T07:52:45.982Z,10.73
2018-03-11T08:02:55.549Z,11.10
2018-03-11T08:13:07.853Z,10.50
2018-03-11T08:23:19.161Z,10.13
2018-03-11T08:33:28.662Z,13.13
2018-03-11T08:43:37.692Z,16.50
2018-03-11T08:53:47.252Z,22.40
2018-03-11T09:25:23.231Z,32.40
2018-03-11T09:35:38.627Z,29.03
2018-03-11T09:45:49.996Z,31.53
2018-03-11T09:56:06.899Z,27.73
2018-03-11T10:16:33.131Z,27.30
2018-03-11T10:26:43.090Z,26.03
2018-03-11T10:36:52.110Z,27.73
2018-03-11T10:47:03.513Z,26.03
2018-03-11T10:57:12.755Z,24.33
2018-03-11T11:07:20.974Z,22.17
2018-03-11T11:17:29.420Z,22.63
2018-03-11T11:27:40.047Z,21.83
2018-03-11T11:37:49.425Z,19.93
2018-03-11T11:48:05.376Z,19.67
2018-03-11T11:58:16.931Z,19.83
2018-03-11T12:08:28.690Z,19.40
2018-03-11T12:18:37.487Z,16.10
2018-03-11T12:39:10.705Z,17.07
2018-03-11T12:49:20.697Z,17.60
2018-03-11T12:59:30.916Z,15.17
2018-03-11T13:09:46.093Z,16.23
2018-03-11T13:20:16.483Z,14.83
2018-03-11T13:30:26.733Z,13.87
2018-03-11T13:40:45.414Z,13.93
2018-03-11T13:51:01.795Z,13.53
2018-03-11T14:01:13.817Z,13.83
2018-03-11T14:11:24.129Z,13.87
2018-03-11T14:21:38.328Z,12.27
2018-03-11T14:31:48.537Z,13.57
2018-03-11T14:41:57.906Z,11.97
2018-03-11T14:52:14.471Z,13.07
2018-03-11T15:02:23.032Z,10.97
2018-03-11T15:12:34.630Z,11.30
2018-03-11T15:22:47.770Z,9.97
2018-03-11T15:32:59.474Z,10.13
2018-03-11T15:43:10.038Z,9.70
2018-03-11T16:03:44.696Z,9.17
2018-03-11T16:13:56.203Z,9.80
2018-03-11T16:24:08.290Z,9.63
2018-03-11T16:34:18.466Z,9.30
2018-03-11T16:44:29.269Z,11.40
2018-03-11T16:54:38.366Z,12.73
2018-03-11T17:04:48.741Z,11.20
2018-03-11T17:25:08.602Z,11.30
2018-03-11T17:35:17.862Z,10.93
2018-03-11T17:45:27.371Z,11.10
2018-03-11T17:55:36.489Z,10.73
2018-03-11T18:05:44.943Z,10.87
2018-03-11T18:15:57.578Z,14.87
2018-03-11T18:26:07.599Z,12.47
2018-03-11T18:46:58.419Z,11.13
2018-03-11T18:57:08.004Z,13.73
2018-03-11T19:07:21.776Z,11.30
2018-03-11T19:17:31.083Z,9.77
2018-03-11T19:27:40.062Z,9.87
2018-03-11T19:37:48.307Z,9.80
2018-03-11T19:48:03.084Z,10.93
2018-03-11T19:58:33.930Z,11.97
2018-03-11T20:08:46.388Z,9.97
2018-03-11T20:29:17.701Z,9.40
2018-03-11T20:39:26.116Z,10.77
2018-03-11T20:49:35.128Z,10.27
2018-03-11T20:59:46.556Z,9.83
2018-03-11T21:10:01.374Z,10.43
2018-03-11T21:20:11.101Z,9.93
2018-03-11T21:30:38.209Z,10.90
2018-03-11T21:40:46.288Z,10.30
2018-03-11T21:51:01.108Z,11.50
2018-03-11T22:01:11.904Z,10.67
2018-03-11T22:11:20.356Z,10.67
2018-03-11T22:21:36.358Z,11.13
2018-03-11T22:31:45.136Z,11.20
2018-03-11T22:41:55.972Z,11.13
2018-03-11T22:52:03.948Z,10.60
2018-03-11T23:02:15.344Z,11.00
2018-03-11T23:12:23.457Z,15.30
2018-03-11T23:22:41.788Z,11.33
2018-03-11T23:43:21.469Z,10.23
2018-03-11T23:53:35.507Z,11.17
